Time;durP1;ratioP1;P1;durP2;ratioP2;P2;SDS_P1;SDS_P2;PMS_P1;PMS_P2;Temp;Humidity;BMP_temperature;BMP_pressure;BME280_temperature;BME280_humidity;BME280_pressure;Samples;Min_cycle;Max_cycle;Signal;HPM_P1;HPM_P2
2023/01/08 00:02:09;;;;;;;3.85;2.67;;;10.30;99.90;;;;;;5016709;28;20040;-86
2023/01/08 00:04:34;;;;;;;3.72;2.55;;;10.30;99.90;;;;;;5055820;28;20514;-86
2023/01/08 00:07:00;;;;;;;5.03;2.47;;;10.30;99.90;;;;;;5056027;28;20118;-86
2023/01/08 00:09:26;;;;;;;4.97;2.92;;;10.30;99.90;;;;;;5058770;28;20089;-86
2023/01/08 00:11:52;;;;;;;4.07;2.40;;;10.40;99.90;;;;;;5075381;28;20048;-86
2023/01/08 00:14:18;;;;;;;4.70;1.98;;;10.30;99.90;;;;;;5026315;28;20040;-87
2023/01/08 00:16:44;;;;;;;2.85;1.92;;;10.30;99.90;;;;;;5058438;28;20127;-87
2023/01/08 00:19:11;;;;;;;2.95;2.22;;;10.30;99.90;;;;;;5042118;28;20384;-87
2023/01/08 00:21:37;;;;;;;3.78;2.30;;;10.20;99.90;;;;;;5059288;28;20582;-87
2023/01/08 00:24:03;;;;;;;3.88;2.28;;;10.30;99.90;;;;;;5042092;28;20075;-86
2023/01/08 00:26:29;;;;;;;3.83;2.42;;;10.30;99.90;;;;;;5058657;28;20055;-86
2023/01/08 00:28:54;;;;;;;5.20;2.53;;;10.30;99.90;;;;;;5057956;28;20533;-87
2023/01/08 00:31:20;;;;;;;6.25;2.33;;;10.30;99.90;;;;;;5057915;28;20036;-86
2023/01/08 00:33:46;;;;;;;3.00;2.13;;;10.30;99.90;;;;;;5058277;28;20395;-87
2023/01/08 00:36:15;;;;;;;6.22;2.90;;;10.30;99.90;;;;;;5042152;28;20044;-86
2023/01/08 00:38:42;;;;;;;3.03;1.92;;;10.30;99.90;;;;;;5058452;28;20593;-87
2023/01/08 00:41:08;;;;;;;4.05;2.35;;;10.30;99.90;;;;;;5075130;28;20032;-87
2023/01/08 00:43:34;;;;;;;3.33;2.17;;;10.30;99.90;;;;;;5042392;28;20032;-87
2023/01/08 00:46:00;;;;;;;3.70;2.50;;;10.40;99.90;;;;;;5042011;28;20063;-86
2023/01/08 00:48:26;;;;;;;2.95;2.13;;;10.20;99.90;;;;;;5041789;28;20105;-87
2023/01/08 00:50:52;;;;;;;5.22;2.45;;;10.20;99.90;;;;;;5042263;28;20564;-87
2023/01/08 00:53:20;;;;;;;3.90;1.80;;;10.20;99.90;;;;;;5058063;28;20135;-87
2023/01/08 00:55:46;;;;;;;3.30;1.90;;;10.10;99.90;;;;;;5057306;28;20043;-87
2023/01/08 00:58:12;;;;;;;5.07;2.45;;;10.10;99.90;;;;;;5058620;28;20040;-87
2023/01/08 01:00:38;;;;;;;4.47;1.65;;;10.00;99.90;;;;;;5058000;28;20075;-87
2023/01/08 01:03:04;;;;;;;3.92;1.50;;;9.90;99.90;;;;;;5041161;28;20064;-86
2023/01/08 01:05:30;;;;;;;3.63;1.27;;;9.90;99.90;;;;;;5076066;28;20036;-87
2023/01/08 01:07:56;;;;;;;3.88;1.33;;;9.80;99.90;;;;;;5041599;28;20040;-87
2023/01/08 01:10:23;;;;;;;3.20;1.30;;;9.80;99.90;;;;;;5056440;28;20472;-87
2023/01/08 01:12:49;;;;;;;6.53;1.30;;;9.70;99.90;;;;;;5057665;28;20575;-87
2023/01/08 01:15:16;;;;;;;4.47;1.40;;;9.60;99.90;;;;;;5058199;28;20036;-86
2023/01/08 01:17:43;;;;;;;3.47;0.90;;;9.50;99.90;;;;;;5057566;28;20044;-86
2023/01/08 01:20:12;;;;;;;4.25;1.30;;;9.50;99.90;;;;;;5041407;28;20040;-88
2023/01/08 01:22:38;;;;;;;4.07;1.23;;;9.40;99.90;;;;;;5066064;28;20032;-87
2023/01/08 01:25:05;;;;;;;5.55;1.38;;;9.40;99.90;;;;;;5041289;28;20032;-87
2023/01/08 01:27:31;;;;;;;6.80;1.55;;;9.30;99.90;;;;;;5057522;28;20058;-86
2023/01/08 01:29:56;;;;;;;4.65;1.40;;;9.30;99.90;;;;;;5024731;28;20510;-87
2023/01/08 01:32:22;;;;;;;6.07;1.58;;;9.10;99.90;;;;;;5042396;28;20143;-87
2023/01/08 01:34:48;;;;;;;7.40;2.20;;;9.20;99.90;;;;;;5041207;28;20044;-87
2023/01/08 01:37:14;;;;;;;9.98;1.73;;;9.10;99.90;;;;;;5057172;28;20048;-87
2023/01/08 01:39:42;;;;;;;10.20;1.75;;;9.20;99.90;;;;;;5039209;28;20043;-87
2023/01/08 01:45:00;;;;;;;9.63;2.05;;;9.00;99.90;;;;;;5073817;28;20157;-87
2023/01/08 01:47:36;;;;;;;9.90;2.25;;;9.00;99.90;;;;;;5057190;28;20052;-86
2023/01/08 01:50:07;;;;;;;8.18;2.03;;;9.00;99.90;;;;;;5057324;28;20488;-86
2023/01/08 01:52:40;;;;;;;13.07;1.85;;;9.00;99.90;;;;;;5073903;28;20391;-87
2023/01/08 01:55:08;;;;;;;8.82;1.98;;;9.00;99.90;;;;;;5056009;28;20032;-86
2023/01/08 01:57:36;;;;;;;9.75;2.05;;;9.00;99.90;;;;;;5074039;28;20044;-87
2023/01/08 02:00:05;;;;;;;8.93;1.60;;;9.00;99.90;;;;;;5056736;28;20525;-87
2023/01/08 02:02:31;;;;;;;10.63;2.17;;;9.00;99.90;;;;;;5057538;28;20067;-87
2023/01/08 02:04:59;;;;;;;9.73;2.42;;;9.00;99.90;;;;;;5038877;28;20468;-87
2023/01/08 02:07:35;;;;;;;9.55;2.05;;;9.00;99.90;;;;;;5039809;28;20100;-87
2023/01/08 02:10:13;;;;;;;;;;;7.50;99.90;;;;;;5056407;28;20054;-87
2023/01/08 02:12:52;;;;;;;9.27;1.70;;;8.90;99.90;;;;;;5056300;28;19928;-86
2023/01/08 02:15:46;;;;;;;8.50;1.77;;;8.90;99.90;;;;;;5072751;28;20047;-86
2023/01/08 02:18:35;;;;;;;6.38;1.20;;;8.90;99.90;;;;;;5055995;28;20044;-87
2023/01/08 02:21:09;;;;;;;8.90;1.80;;;8.90;99.90;;;;;;5073069;28;20118;-87
2023/01/08 02:23:45;;;;;;;10.65;2.00;;;8.90;99.90;;;;;;5055706;28;20081;-86
2023/01/08 02:26:27;;;;;;;8.15;1.42;;;8.90;99.90;;;;;;5055226;28;20078;-86
2023/01/08 02:28:58;;;;;;;7.18;1.63;;;8.90;99.90;;;;;;5072580;28;20051;-86
2023/01/08 02:31:27;;;;;;;8.38;2.47;;;8.90;99.90;;;;;;5064031;28;20530;-86
2023/01/08 02:33:53;;;;;;;8.05;1.80;;;8.90;99.90;;;;;;5055555;28;20055;-87
2023/01/08 02:36:22;;;;;;;12.25;2.30;;;8.90;99.90;;;;;;5038907;28;20036;-86
2023/01/08 02:39:25;;;;;;;7.00;1.48;;;8.90;99.90;;;;;;5055780;28;20472;-87
2023/01/08 02:42:10;;;;;;;9.45;1.73;;;8.80;99.90;;;;;;5006974;28;20174;-87
2023/01/08 02:45:12;;;;;;;7.05;1.70;;;8.80;99.90;;;;;;5056958;28;20081;-87
2023/01/08 02:47:54;;;;;;;5.03;1.58;;;8.80;99.90;;;;;;5066274;28;20135;-86
2023/01/08 02:50:36;;;;;;;4.53;1.70;;;8.80;99.90;;;;;;5054812;28;20450;-87
2023/01/08 02:53:19;;;;;;;9.27;2.63;;;8.80;99.90;;;;;;5071867;28;20074;-87
2023/01/08 02:55:50;;;;;;;4.65;1.80;;;8.80;99.90;;;;;;5072150;28;20040;-87
2023/01/08 02:58:17;;;;;;;5.63;2.00;;;8.70;99.90;;;;;;5046097;28;20441;-86
2023/01/08 03:00:45;;;;;;;7.60;2.30;;;8.80;99.90;;;;;;5045879;28;20035;-87
2023/01/08 03:03:18;;;;;;;6.70;2.05;;;8.80;99.90;;;;;;5072385;28;20032;-86
2023/01/08 03:05:48;;;;;;;3.85;2.05;;;8.80;99.90;;;;;;5055145;28;20040;-86
2023/01/08 03:08:15;;;;;;;5.07;2.25;;;8.80;99.90;;;;;;5055345;28;20042;-86
2023/01/08 03:10:43;;;;;;;8.55;2.10;;;8.80;99.90;;;;;;5055376;28;20107;-87
2023/01/08 03:13:29;;;;;;;6.75;2.78;;;8.80;99.90;;;;;;5055712;28;20035;-86
2023/01/08 03:15:59;;;;;;;5.00;2.80;;;8.90;99.90;;;;;;5062451;28;20119;-87
2023/01/08 03:18:37;;;;;;;4.60;2.78;;;9.00;99.90;;;;;;5055220;28;20079;-86
2023/01/08 03:21:05;;;;;;;3.90;2.80;;;8.90;99.90;;;;;;5055374;28;20594;-87
2023/01/08 03:23:33;;;;;;;6.07;3.63;;;9.00;99.90;;;;;;5055999;28;20632;-86
2023/01/08 03:26:01;;;;;;;6.38;3.35;;;9.00;99.90;;;;;;5055899;28;20048;-87
2023/01/08 03:28:33;;;;;;;6.25;3.40;;;9.00;99.90;;;;;;5055484;28;20117;-86
2023/01/08 03:31:00;;;;;;;7.18;3.30;;;9.00;99.90;;;;;;5072194;28;20596;-87
2023/01/08 03:33:29;;;;;;;7.47;3.67;;;9.00;99.90;;;;;;5054308;28;20089;-87
2023/01/08 03:35:57;;;;;;;7.70;3.38;;;9.00;99.90;;;;;;5055913;28;20044;-87
2023/01/08 03:38:32;;;;;;;6.20;3.13;;;9.00;99.90;;;;;;5039312;28;20032;-86
2023/01/08 03:41:07;;;;;;;10.10;3.10;;;9.10;99.90;;;;;;5055954;28;20123;-86
2023/01/08 03:43:33;;;;;;;6.07;2.83;;;9.20;99.90;;;;;;5056494;28;20044;-87
2023/01/08 03:46:02;;;;;;;5.40;2.67;;;9.20;99.90;;;;;;5052149;28;20493;-86
2023/01/08 03:48:31;;;;;;;6.00;2.80;;;9.20;99.90;;;;;;5051305;28;20562;-86
2023/01/08 03:50:56;;;;;;;6.50;2.70;;;9.20;99.90;;;;;;5050650;28;20127;-87
2023/01/08 03:53:22;;;;;;;6.07;3.22;;;9.20;99.90;;;;;;5018852;28;20131;-87
2023/01/08 03:55:48;;;;;;;6.95;3.17;;;9.20;99.90;;;;;;5052127;28;20083;-86
2023/01/08 03:58:14;;;;;;;4.15;2.10;;;9.20;99.90;;;;;;5018909;28;20358;-87
2023/01/08 04:00:39;;;;;;;5.57;2.60;;;9.20;99.90;;;;;;5035206;28;20051;-86
2023/01/08 04:03:05;;;;;;;5.78;2.75;;;9.20;99.90;;;;;;5051121;28;20043;-87
2023/01/08 04:05:31;;;;;;;5.38;2.72;;;9.20;99.90;;;;;;5059158;28;20036;-87
2023/01/08 04:07:57;;;;;;;5.53;2.20;;;9.50;99.90;;;;;;5000140;28;20044;-86
2023/01/08 04:10:23;;;;;;;7.30;2.40;;;9.20;99.90;;;;;;5026266;28;20044;-87
2023/01/08 04:12:49;;;;;;;6.20;2.67;;;9.20;99.90;;;;;;5028380;28;20049;-87
2023/01/08 04:15:15;;;;;;;4.88;2.22;;;9.20;99.90;;;;;;5029383;28;21674;-87
2023/01/08 04:17:41;;;;;;;4.30;2.38;;;9.20;99.90;;;;;;5033263;28;20087;-87
2023/01/08 04:20:08;;;;;;;8.00;2.83;;;9.20;99.90;;;;;;5034659;28;20068;-87
2023/01/08 04:22:33;;;;;;;5.93;2.42;;;9.20;99.90;;;;;;5051424;28;20437;-87
2023/01/08 04:24:59;;;;;;;4.78;2.42;;;9.20;99.90;;;;;;5033926;28;20083;-86
2023/01/08 04:27:25;;;;;;;4.65;2.22;;;9.10;99.90;;;;;;5025767;28;20072;-86
2023/01/08 04:29:51;;;;;;;3.33;1.85;;;9.10;99.90;;;;;;5021082;28;20116;-87
2023/01/08 04:32:17;;;;;;;3.55;1.65;;;9.10;99.90;;;;;;5054144;28;20102;-86
2023/01/08 04:34:43;;;;;;;2.97;1.80;;;9.20;99.90;;;;;;5038224;28;20050;-87
2023/01/08 04:37:09;;;;;;;5.18;1.90;;;9.20;99.90;;;;;;5053728;28;20048;-87
2023/01/08 04:39:34;;;;;;;3.85;1.80;;;9.10;99.90;;;;;;5054648;28;20033;-86
2023/01/08 04:42:00;;;;;;;4.90;2.08;;;9.10;99.90;;;;;;5038904;28;20109;-87
2023/01/08 04:44:26;;;;;;;5.53;2.10;;;9.10;99.90;;;;;;5054615;28;20455;-87
2023/01/08 04:46:51;;;;;;;4.28;1.92;;;9.10;99.90;;;;;;5053087;28;20459;-86
2023/01/08 04:49:17;;;;;;;2.75;1.50;;;9.10;99.90;;;;;;5021532;28;20048;-87
2023/01/08 04:51:43;;;;;;;4.78;1.80;;;9.00;99.90;;;;;;5037851;28;20044;-86
2023/01/08 04:54:09;;;;;;;5.80;2.05;;;9.00;99.90;;;;;;5054856;28;20117;-86
2023/01/08 04:56:34;;;;;;;2.30;1.58;;;9.00;99.90;;;;;;5011241;28;20037;-87
2023/01/08 04:59:00;;;;;;;4.70;2.10;;;9.00;99.90;;;;;;5037672;28;20041;-87
2023/01/08 05:01:27;;;;;;;3.30;1.45;;;9.00;99.90;;;;;;5037675;28;20032;-86
2023/01/08 05:04:03;;;;;;;6.70;1.75;;;8.90;99.90;;;;;;5054888;28;20063;-86
2023/01/08 05:06:30;;;;;;;4.22;1.83;;;8.90;99.90;;;;;;5054626;28;20230;-86
2023/01/08 05:08:56;;;;;;;3.25;1.90;;;8.90;99.90;;;;;;5053977;28;20048;-86
2023/01/08 05:11:22;;;;;;;5.45;2.28;;;8.80;99.90;;;;;;5054372;28;20048;-87
2023/01/08 05:13:49;;;;;;;3.70;1.88;;;8.90;99.90;;;;;;5021306;28;20036;-86
2023/01/08 05:16:16;;;;;;;3.45;1.45;;;8.90;99.90;;;;;;5054296;28;20498;-87
2023/01/08 05:18:43;;;;;;;6.25;2.20;;;8.80;99.90;;;;;;5037205;28;20033;-86
2023/01/08 05:21:09;;;;;;;3.63;2.20;;;8.80;99.90;;;;;;5070995;28;20090;-86
2023/01/08 05:23:34;;;;;;;6.50;2.33;;;8.80;99.90;;;;;;5037611;28;20041;-87
2023/01/08 05:26:03;;;;;;;6.80;3.08;;;8.80;99.90;;;;;;5037435;28;20115;-87
2023/01/08 05:28:29;;;;;;;4.32;2.40;;;8.80;99.90;;;;;;5054291;28;20059;-86
2023/01/08 05:30:55;;;;;;;4.20;2.47;;;8.80;99.90;;;;;;5053372;28;20480;-86
2023/01/08 05:33:22;;;;;;;3.97;2.30;;;8.80;99.90;;;;;;5037109;28;20055;-87
2023/01/08 05:35:47;;;;;;;4.22;2.50;;;8.80;99.90;;;;;;5013389;28;20048;-86
2023/01/08 05:38:13;;;;;;;5.28;2.47;;;8.80;99.90;;;;;;5053983;28;20173;-86
2023/01/08 05:40:39;;;;;;;4.40;2.35;;;8.80;99.90;;;;;;5037079;28;20135;-87
2023/01/08 05:43:05;;;;;;;6.85;3.00;;;8.80;99.90;;;;;;5020935;28;20037;-87
2023/01/08 05:45:31;;;;;;;5.38;2.58;;;8.90;99.90;;;;;;5070082;28;20596;-86
2023/01/08 05:47:57;;;;;;;4.88;2.20;;;9.40;99.90;;;;;;5054030;28;20101;-86
2023/01/08 05:50:23;;;;;;;4.50;2.35;;;9.00;99.90;;;;;;5053853;28;20103;-87
2023/01/08 05:52:49;;;;;;;4.55;2.13;;;8.70;99.90;;;;;;5070597;28;20052;-86
2023/01/08 05:55:15;;;;;;;6.28;2.55;;;8.70;99.90;;;;;;5037198;28;20561;-87
2023/01/08 05:57:41;;;;;;;5.75;2.60;;;8.70;99.90;;;;;;5036976;28;20476;-86
2023/01/08 06:00:09;;;;;;;7.65;2.20;;;8.60;99.90;;;;;;5036764;28;20093;-86
2023/01/08 06:02:35;;;;;;;6.53;1.98;;;8.60;99.90;;;;;;5036396;28;20044;-87
2023/01/08 06:05:00;;;;;;;6.03;2.65;;;8.70;99.90;;;;;;5053511;28;20125;-87
2023/01/08 06:07:28;;;;;;;7.05;1.90;;;8.60;99.90;;;;;;5037193;28;20084;-86
2023/01/08 06:09:53;;;;;;;6.28;2.28;;;8.60;99.90;;;;;;5036025;28;20044;-87
2023/01/08 06:12:19;;;;;;;6.10;2.65;;;8.60;99.90;;;;;;5053411;28;20074;-86
2023/01/08 06:14:45;;;;;;;3.92;2.10;;;8.50;99.90;;;;;;5036415;28;20045;-87
2023/01/08 06:17:11;;;;;;;6.22;2.05;;;8.50;99.90;;;;;;5036022;28;20046;-87
2023/01/08 06:19:38;;;;;;;7.43;2.10;;;8.50;99.90;;;;;;5019218;28;20036;-87
2023/01/08 06:22:04;;;;;;;6.03;1.92;;;8.50;99.90;;;;;;5052564;28;20040;-86
2023/01/08 06:24:30;;;;;;;4.20;2.20;;;8.50;99.90;;;;;;5052312;28;20036;-86
2023/01/08 06:26:56;;;;;;;3.33;1.50;;;8.50;99.90;;;;;;5035964;28;20454;-86
2023/01/08 06:29:21;;;;;;;4.28;2.00;;;8.50;99.90;;;;;;5035908;28;20036;-87
2023/01/08 06:31:47;;;;;;;5.10;2.00;;;8.60;99.90;;;;;;5035975;28;20044;-85
2023/01/08 06:34:13;;;;;;;4.45;1.65;;;8.50;99.90;;;;;;5019307;28;20048;-86
2023/01/08 06:36:38;;;;;;;4.47;1.92;;;8.50;99.90;;;;;;5052401;28;20504;-87
2023/01/08 06:39:06;;;;;;;5.15;1.83;;;8.60;99.90;;;;;;5020095;28;20040;-86
2023/01/08 06:41:32;;;;;;;5.07;1.80;;;8.50;99.90;;;;;;5052220;28;20082;-87
2023/01/08 06:43:58;;;;;;;6.47;1.52;;;8.40;99.90;;;;;;5036167;28;20044;-86
2023/01/08 06:46:23;;;;;;;5.50;1.70;;;8.40;99.90;;;;;;5018731;28;20063;-86
2023/01/08 06:48:49;;;;;;;6.30;1.83;;;8.40;99.90;;;;;;5020072;28;20048;-86
2023/01/08 06:51:15;;;;;;;6.63;1.73;;;8.40;99.90;;;;;;5034916;28;20414;-86
2023/01/08 06:53:40;;;;;;;4.68;1.50;;;8.40;99.90;;;;;;5036053;28;20582;-87
2023/01/08 06:56:09;;;;;;;7.18;1.73;;;8.40;99.90;;;;;;5019015;28;20041;-87
2023/01/08 06:58:37;;;;;;;6.72;1.98;;;8.30;99.90;;;;;;5052755;28;20131;-86
2023/01/08 07:01:03;;;;;;;7.43;1.60;;;8.30;99.90;;;;;;5052541;28;20051;-87
2023/01/08 07:03:28;;;;;;;8.00;1.70;;;8.30;99.90;;;;;;5052896;28;20036;-86
2023/01/08 07:05:55;;;;;;;6.25;1.60;;;8.20;99.90;;;;;;5052713;28;20485;-87
2023/01/08 07:08:21;;;;;;;4.35;1.60;;;8.20;99.90;;;;;;5052208;28;20107;-86
2023/01/08 07:10:46;;;;;;;7.07;1.70;;;8.20;99.90;;;;;;5036314;28;20139;-87
2023/01/08 07:13:12;;;;;;;3.80;1.33;;;8.20;99.90;;;;;;5035755;28;20040;-86
2023/01/08 07:15:39;;;;;;;3.70;1.50;;;8.10;99.90;;;;;;5052124;28;20038;-86
2023/01/08 07:18:10;;;;;;;6.55;2.10;;;8.00;99.90;;;;;;5052035;28;20069;-87
2023/01/08 07:20:36;;;;;;;11.18;1.98;;;8.00;99.90;;;;;;5035289;28;20050;-86
2023/01/08 07:23:04;;;;;;;8.10;2.20;;;7.90;99.90;;;;;;5052185;28;20036;-87
2023/01/08 07:25:30;;;;;;;6.28;1.90;;;7.90;99.90;;;;;;5052129;28;20036;-88
2023/01/08 07:27:56;;;;;;;8.77;2.80;;;7.90;99.90;;;;;;5054272;28;20064;-92
2023/01/08 07:30:22;;;;;;;5.57;2.17;;;7.80;99.90;;;;;;5036377;28;20087;-86
2023/01/08 07:32:48;;;;;;;5.97;2.42;;;7.70;99.90;;;;;;5053879;28;20373;-86
2023/01/08 07:35:13;;;;;;;3.63;1.80;;;7.70;99.90;;;;;;5054389;28;20178;-87
2023/01/08 07:37:40;;;;;;;5.97;1.90;;;7.70;99.90;;;;;;5053427;28;20101;-89
2023/01/08 07:40:08;;;;;;;6.43;1.60;;;7.70;99.90;;;;;;5055072;28;20036;-88
2023/01/08 07:42:34;;;;;;;7.43;1.88;;;7.70;99.90;;;;;;5038157;28;20033;-89
2023/01/08 07:44:59;;;;;;;6.75;1.95;;;7.60;99.90;;;;;;5053330;28;20408;-88
2023/01/08 07:47:25;;;;;;;4.80;1.77;;;7.60;99.90;;;;;;5017908;28;20057;-89
2023/01/08 07:49:51;;;;;;;6.25;2.00;;;7.60;99.90;;;;;;5009072;28;20052;-91
2023/01/08 07:52:16;;;;;;;9.10;2.38;;;7.60;99.90;;;;;;5032948;28;20045;-89
2023/01/08 07:54:42;;;;;;;6.00;1.80;;;7.60;99.90;;;;;;5030683;28;20070;-89
2023/01/08 07:57:08;;;;;;;6.65;1.83;;;7.50;99.90;;;;;;5030755;28;20467;-89
2023/01/08 07:59:34;;;;;;;7.75;1.95;;;7.50;99.90;;;;;;5020081;28;20043;-90
2023/01/08 08:01:59;;;;;;;5.22;1.70;;;7.40;99.90;;;;;;5025256;28;20040;-89
2023/01/08 08:04:25;;;;;;;9.43;2.00;;;7.40;99.90;;;;;;5031904;28;20469;-87
2023/01/08 08:06:52;;;;;;;11.30;1.73;;;7.40;99.90;;;;;;5016264;28;20563;-89
2023/01/08 08:09:18;;;;;;;5.18;1.80;;;7.60;99.90;;;;;;5031674;28;20051;-90
2023/01/08 08:11:44;;;;;;;6.13;1.90;;;7.60;99.90;;;;;;5033437;28;20041;-90
2023/01/08 08:14:09;;;;;;;6.50;2.10;;;7.40;99.90;;;;;;5034280;28;20056;-90
2023/01/08 08:16:35;;;;;;;5.93;1.52;;;6.80;99.90;;;;;;5019451;28;20033;-89
2023/01/08 08:19:01;;;;;;;5.30;1.55;;;;;;;;;;5027068;28;20044;-91
2023/01/08 08:21:28;;;;;;;7.70;1.90;;;7.40;99.90;;;;;;5025358;28;20048;-91
2023/01/08 08:23:54;;;;;;;4.90;1.90;;;7.50;99.90;;;;;;5024040;28;20033;-92
2023/01/08 08:26:40;;;;;;;9.60;1.80;;;7.40;99.90;;;;;;5024421;28;20392;-91
2023/01/08 08:29:06;;;;;;;4.93;1.53;;;;;;;;;;5009784;28;20041;-89
2023/01/08 08:31:34;;;;;;;4.85;1.92;;;7.50;99.90;;;;;;5025251;28;20481;-92
2023/01/08 08:34:00;;;;;;;5.68;1.55;;;8.00;99.90;;;;;;5011468;28;20048;-88
2023/01/08 08:36:29;;;;;;;4.47;1.50;;;7.50;99.90;;;;;;5021295;28;20090;-90
2023/01/08 08:38:55;;;;;;;5.68;1.75;;;7.50;99.90;;;;;;5033856;28;20120;-90
2023/01/08 08:41:21;;;;;;;8.80;2.00;;;7.50;99.90;;;;;;5038642;28;20039;-91
2023/01/08 08:43:50;;;;;;;7.13;1.70;;;7.50;99.90;;;;;;5043479;28;20060;-91
2023/01/08 08:46:17;;;;;;;4.38;1.77;;;7.50;99.90;;;;;;5037704;28;20084;-88
2023/01/08 08:48:46;;;;;;;7.28;2.05;;;7.90;99.90;;;;;;5060458;28;20062;-87
2023/01/08 08:51:12;;;;;;;6.43;1.50;;;7.40;99.90;;;;;;5077605;28;20044;-89
2023/01/08 08:53:38;;;;;;;5.80;1.90;;;7.50;99.90;;;;;;5061186;28;20101;-87
2023/01/08 08:56:04;;;;;;;8.45;1.40;;;7.60;99.90;;;;;;5061519;28;20040;-88
2023/01/08 08:58:30;;;;;;;6.13;1.95;;;7.50;99.90;;;;;;5028171;28;20047;-88
2023/01/08 09:01:01;;;;;;;8.13;1.75;;;7.50;99.90;;;;;;5061647;28;20028;-88
2023/01/08 09:03:26;;;;;;;4.20;1.10;;;7.60;99.90;;;;;;5060878;28;20101;-88
2023/01/08 09:05:52;;;;;;;4.60;1.77;;;7.60;99.90;;;;;;5041075;28;20040;-88
2023/01/08 09:08:18;;;;;;;5.60;1.80;;;7.60;99.90;;;;;;5021375;28;20040;-88
2023/01/08 09:10:43;;;;;;;9.30;1.80;;;7.90;99.90;;;;;;5042929;28;20385;-89
2023/01/08 09:13:10;;;;;;;5.00;1.80;;;7.70;99.90;;;;;;5061620;28;20542;-88
2023/01/08 09:15:37;;;;;;;4.28;1.67;;;8.40;99.90;;;;;;5061645;28;20119;-88
2023/01/08 09:18:02;;;;;;;5.15;1.67;;;7.80;99.90;;;;;;5042081;28;20036;-90
2023/01/08 09:20:28;;;;;;;3.42;1.50;;;8.00;99.90;;;;;;5060674;28;20036;-89
2023/01/08 09:22:58;;;;;;;5.60;2.10;;;8.10;99.90;;;;;;5062114;28;20097;-89
2023/01/08 09:25:24;;;;;;;9.93;1.98;;;8.10;99.90;;;;;;5075271;28;20123;-89
2023/01/08 09:28:08;;;;;;;6.65;1.30;;;8.30;99.90;;;;;;5037514;28;20041;-89
2023/01/08 09:30:34;;;;;;;7.75;1.98;;;8.60;99.90;;;;;;5052687;28;20068;-89
2023/01/08 09:33:01;;;;;;;5.57;1.65;;;8.90;99.90;;;;;;5065827;28;20044;-88
2023/01/08 09:35:28;;;;;;;6.22;1.65;;;8.10;99.90;;;;;;5061493;28;20130;-89
2023/01/08 09:37:55;;;;;;;10.18;1.60;;;9.20;99.90;;;;;;5060974;28;20097;-89
2023/01/08 09:40:55;;;;;;;7.43;1.42;;;9.10;99.90;;;;;;5061924;28;20058;-89
2023/01/08 09:43:23;;;;;;;8.40;1.55;;;9.00;99.90;;;;;;5009050;28;20044;-89
2023/01/08 09:45:54;;;;;;;8.43;1.73;;;9.00;99.90;;;;;;5060767;28;20040;-89
2023/01/08 09:48:24;;;;;;;12.43;2.00;;;9.10;99.90;;;;;;5058189;28;20079;-89
2023/01/08 09:50:49;;;;;;;8.02;2.08;;;9.00;99.90;;;;;;5057003;28;20087;-90
2023/01/08 09:53:17;;;;;;;7.57;1.77;;;9.00;99.90;;;;;;5057911;28;20024;-89
2023/01/08 09:55:43;;;;;;;12.50;2.00;;;9.10;99.90;;;;;;5058058;28;20079;-89
2023/01/08 09:58:40;;;;;;;6.60;1.70;;;9.50;99.90;;;;;;5056343;28;20044;-89
2023/01/08 10:01:06;;;;;;;8.25;1.65;;;9.70;99.90;;;;;;5054843;28;20053;-89
2023/01/08 10:03:42;;;;;;;9.35;1.40;;;9.90;99.90;;;;;;5057196;28;20044;-89
2023/01/08 10:06:13;;;;;;;9.98;1.75;;;10.30;99.90;;;;;;5056076;28;20059;-87
2023/01/08 10:08:39;;;;;;;9.68;2.13;;;10.60;99.90;;;;;;5027586;28;20121;-88
2023/01/08 10:11:06;;;;;;;9.45;2.38;;;11.00;99.90;;;;;;5068271;28;20385;-87
2023/01/08 10:13:40;;;;;;;9.15;1.85;;;11.30;99.90;;;;;;5036844;28;20036;-89
2023/01/08 10:16:09;;;;;;;9.27;2.05;;;11.50;99.90;;;;;;5034576;28;20084;-88
2023/01/08 10:18:35;;;;;;;8.57;2.15;;;11.60;99.90;;;;;;5052540;28;20120;-88
2023/01/08 10:21:01;;;;;;;8.50;2.13;;;11.80;99.90;;;;;;5036611;28;20072;-87
2023/01/08 10:23:27;;;;;;;6.28;1.50;;;11.90;99.90;;;;;;5048149;28;20082;-88
2023/01/08 10:26:00;;;;;;;6.47;1.60;;;12.00;99.90;;;;;;5019765;28;20087;-89
2023/01/08 10:28:27;;;;;;;5.20;1.80;;;12.00;99.90;;;;;;5053908;28;20035;-88
2023/01/08 10:30:59;;;;;;;6.40;2.13;;;12.00;99.90;;;;;;5052077;28;20109;-87
2023/01/08 10:33:42;;;;;;;8.30;1.90;;;12.00;99.90;;;;;;5066577;28;20096;-88
2023/01/08 10:36:12;;;;;;;6.38;1.70;;;12.10;99.90;;;;;;5053504;28;20158;-87
2023/01/08 10:38:59;;;;;;;8.10;1.83;;;12.30;99.90;;;;;;5066484;28;20053;-87
2023/01/08 10:41:25;;;;;;;;;;;12.20;99.90;;;;;;5070823;28;20072;-88
2023/01/08 10:43:55;;;;;;;9.52;2.40;;;12.30;99.90;;;;;;5036961;28;19971;-88
2023/01/08 10:46:26;;;;;;;9.55;2.45;;;12.30;99.90;;;;;;5055554;28;20036;-88
2023/01/08 10:48:57;;;;;;;10.32;2.30;;;12.00;99.90;;;;;;5056407;28;20495;-88
2023/01/08 10:51:26;;;;;;;6.60;1.48;;;11.70;99.90;;;;;;5056781;28;20101;-88
2023/01/08 10:53:53;;;;;;;7.45;2.00;;;11.40;99.90;;;;;;5073525;28;20048;-88
2023/01/08 10:56:39;;;;;;;11.20;2.10;;;11.10;99.90;;;;;;5056314;28;20039;-88
2023/01/08 10:59:04;;;;;;;9.23;2.08;;;10.80;99.90;;;;;;5057756;28;20463;-87
2023/01/08 11:01:31;;;;;;;8.35;1.67;;;10.60;99.90;;;;;;5056930;28;20123;-87
2023/01/08 11:04:01;;;;;;;12.15;1.90;;;10.30;99.90;;;;;;5057772;28;20476;-88
2023/01/08 11:06:35;;;;;;;8.55;2.22;;;10.30;99.90;;;;;;5056876;28;20116;-88
2023/01/08 11:09:12;;;;;;;9.65;1.52;;;10.30;99.90;;;;;;5048717;28;20456;-87
2023/01/08 11:11:38;;;;;;;10.90;2.95;;;10.20;99.90;;;;;;5057078;28;20131;-87
2023/01/08 11:14:25;;;;;;;6.65;2.10;;;10.10;99.90;;;;;;5040409;28;20039;-89
2023/01/08 11:16:52;;;;;;;11.48;2.30;;;10.10;99.90;;;;;;5055861;28;20032;-88
2023/01/08 11:19:38;;;;;;;9.63;1.92;;;10.30;99.90;;;;;;5075175;28;20054;-88
2023/01/08 11:22:20;;;;;;;14.10;2.70;;;10.70;99.90;;;;;;5074800;28;20070;-88
2023/01/08 11:24:48;;;;;;;11.55;2.40;;;11.20;99.90;;;;;;5056426;28;20070;-91
2023/01/08 11:27:31;;;;;;;9.60;2.13;;;11.60;99.90;;;;;;5074201;28;20044;-89
2023/01/08 11:30:15;;;;;;;7.65;1.65;;;12.00;99.90;;;;;;5058921;28;20044;-91
2023/01/08 11:33:02;;;;;;;11.45;2.50;;;12.10;99.90;;;;;;5058892;28;20130;-90
2023/01/08 11:36:02;;;;;;;10.05;2.40;;;12.00;99.90;;;;;;5055794;28;20040;-90
2023/01/08 11:38:28;;;;;;;8.25;2.10;;;12.10;99.90;;;;;;5072580;28;20056;-89
2023/01/08 11:41:18;;;;;;;11.13;2.50;;;12.10;99.90;;;;;;5050699;28;20040;-89
2023/01/08 11:44:16;;;;;;;6.65;1.77;;;11.90;99.90;;;;;;5052106;28;20044;-89
2023/01/08 11:47:30;;;;;;;13.40;2.60;;;11.60;99.90;;;;;;5043292;28;20044;-89
2023/01/08 11:50:13;;;;;;;7.82;2.30;;;11.60;99.90;;;;;;5042969;28;20127;-88
2023/01/08 11:53:10;;;;;;;7.47;1.95;;;11.60;99.90;;;;;;5049400;28;20074;-88
2023/01/08 11:55:35;;;;;;;;;;;11.90;99.90;;;;;;5059674;28;20036;-88
2023/01/08 11:58:23;;;;;;;9.47;1.97;;;12.10;99.90;;;;;;5059623;28;19923;-88
2023/01/08 12:01:10;;;;;;;7.07;2.30;;;12.30;99.90;;;;;;5049476;28;20454;-88
2023/01/08 12:03:37;;;;;;;11.10;2.90;;;12.40;99.90;;;;;;5072489;28;20032;-88
2023/01/08 12:06:15;;;;;;;8.90;2.78;;;12.20;99.90;;;;;;5074729;28;20043;-88
2023/01/08 12:08:49;;;;;;;9.85;1.95;;;11.90;99.90;;;;;;5059981;28;20035;-88
2023/01/08 12:11:31;;;;;;;10.75;2.33;;;11.50;99.90;;;;;;5051515;28;20543;-88
2023/01/08 12:14:32;;;;;;;9.07;2.20;;;11.20;99.90;;;;;;5076075;28;20047;-88
2023/01/08 12:17:23;;;;;;;7.47;1.80;;;11.20;99.90;;;;;;5060112;28;20040;-87
2023/01/08 12:20:08;;;;;;;10.85;1.90;;;11.10;99.90;;;;;;5075171;28;20044;-88
2023/01/08 12:22:47;;;;;;;7.82;2.15;;;11.00;99.90;;;;;;5059706;28;20036;-88
2023/01/08 12:25:25;;;;;;;8.05;2.35;;;11.00;99.90;;;;;;5058363;28;20087;-88
2023/01/08 12:28:22;;;;;;;7.45;1.60;;;11.00;99.90;;;;;;5093740;28;20089;-88
2023/01/08 12:31:13;;;;;;;8.07;2.10;;;11.00;99.90;;;;;;5059187;28;20074;-88
2023/01/08 12:34:06;;;;;;;9.77;2.20;;;11.10;99.90;;;;;;5049134;28;20105;-88
2023/01/08 12:36:53;;;;;;;11.90;2.30;;;11.00;99.90;;;;;;5051364;28;20060;-88
2023/01/08 12:39:29;;;;;;;5.20;1.60;;;11.00;99.90;;;;;;5058428;28;20044;-87
2023/01/08 12:42:05;;;;;;;;;;;10.80;99.90;;;;;;5059656;28;20035;-88
2023/01/08 12:44:32;;;;;;;8.38;2.03;;;10.70;99.90;;;;;;5058253;28;19973;-88
2023/01/08 12:47:01;;;;;;;11.27;2.03;;;10.60;99.90;;;;;;5040820;28;20055;-88
2023/01/08 12:49:37;;;;;;;10.60;1.92;;;10.60;99.90;;;;;;5057396;28;20703;-87
2023/01/08 12:52:15;;;;;;;6.15;1.92;;;10.60;99.90;;;;;;5058829;28;20048;-88
2023/01/08 12:55:04;;;;;;;7.95;2.00;;;10.70;99.90;;;;;;5058631;28;20048;-88
2023/01/08 12:57:37;;;;;;;9.25;2.08;;;10.80;99.90;;;;;;5049514;28;20672;-88
2023/01/08 13:00:18;;;;;;;4.38;1.20;;;10.80;99.90;;;;;;5067336;28;20032;-88
2023/01/08 13:02:58;;;;;;;8.10;1.65;;;10.90;99.90;;;;;;5075111;28;20181;-88
2023/01/08 13:05:23;;;;;;;6.22;1.50;;;11.00;99.90;;;;;;5057327;28;20042;-88
2023/01/08 13:07:59;;;;;;;9.07;1.60;;;11.00;99.90;;;;;;5057946;28;20416;-88
2023/01/08 13:10:30;;;;;;;7.28;1.88;;;11.00;99.90;;;;;;5057174;28;20064;-90
2023/01/08 13:13:00;;;;;;;6.45;1.38;;;11.00;99.90;;;;;;5058449;28;20484;-87
2023/01/08 13:15:28;;;;;;;9.95;1.38;;;11.10;99.90;;;;;;5041650;28;20046;-88